sensor_id;sensor_type;location;lat;lon;timestamp;temperature;humidity
47252;DHT22;32991;51.374;11.586;2022-10-19T00:02:11;9.50;99.90
47252;DHT22;32991;51.374;11.586;2022-10-19T00:04:38;9.50;99.90
47252;DHT22;32991;51.374;11.586;2022-10-19T00:07:04;9.40;99.90
47252;DHT22;32991;51.374;11.586;2022-10-19T00:09:31;9.50;99.90
47252;DHT22;32991;51.374;11.586;2022-10-19T00:11:58;9.40;99.90
47252;DHT22;32991;51.374;11.586;2022-10-19T00:14:24;9.40;99.90
47252;DHT22;32991;51.374;11.586;2022-10-19T00:16:51;9.40;99.90
47252;DHT22;32991;51.374;11.586;2022-10-19T00:19:21;9.40;99.90
47252;DHT22;32991;51.374;11.586;2022-10-19T00:21:48;9.40;99.90
47252;DHT22;32991;51.374;11.586;2022-10-19T00:24:19;9.30;99.90
47252;DHT22;32991;51.374;11.586;2022-10-19T00:26:46;9.30;99.90
47252;DHT22;32991;51.374;11.586;2022-10-19T00:29:14;9.30;99.90
47252;DHT22;32991;51.374;11.586;2022-10-19T00:31:41;9.30;99.90
47252;DHT22;32991;51.374;11.586;2022-10-19T00:34:08;9.30;99.90
47252;DHT22;32991;51.374;11.586;2022-10-19T00:36:36;9.40;99.90
47252;DHT22;32991;51.374;11.586;2022-10-19T00:39:04;9.30;99.90
47252;DHT22;32991;51.374;11.586;2022-10-19T00:41:31;9.30;99.90
47252;DHT22;32991;51.374;11.586;2022-10-19T00:44:00;9.30;99.90
47252;DHT22;32991;51.374;11.586;2022-10-19T00:46:27;9.30;99.90
47252;DHT22;32991;51.374;11.586;2022-10-19T00:48:57;9.30;99.90
47252;DHT22;32991;51.374;11.586;2022-10-19T00:51:27;9.30;99.90
47252;DHT22;32991;51.374;11.586;2022-10-19T00:53:55;9.30;99.90
47252;DHT22;32991;51.374;11.586;2022-10-19T00:56:25;9.30;99.90
47252;DHT22;32991;51.374;11.586;2022-10-19T00:58:51;9.20;99.90
47252;DHT22;32991;51.374;11.586;2022-10-19T01:01:19;9.20;99.90
47252;DHT22;32991;51.374;11.586;2022-10-19T01:03:47;9.20;99.90
47252;DHT22;32991;51.374;11.586;2022-10-19T01:06:14;9.10;99.90
47252;DHT22;32991;51.374;11.586;2022-10-19T01:08:42;9.10;99.90
47252;DHT22;32991;51.374;11.586;2022-10-19T01:18:58;9.00;99.90
47252;DHT22;32991;51.374;11.586;2022-10-19T01:21:30;9.00;99.90
47252;DHT22;32991;51.374;11.586;2022-10-19T01:26:46;9.00;99.90
47252;DHT22;32991;51.374;11.586;2022-10-19T01:29:47;9.00;99.90
47252;DHT22;32991;51.374;11.586;2022-10-19T01:32:22;9.00;99.90
47252;DHT22;32991;51.374;11.586;2022-10-19T01:34:52;9.00;99.90
47252;DHT22;32991;51.374;11.586;2022-10-19T01:37:39;9.00;99.90
47252;DHT22;32991;51.374;11.586;2022-10-19T01:40:14;8.90;99.90
47252;DHT22;32991;51.374;11.586;2022-10-19T01:42:44;8.90;99.90
47252;DHT22;32991;51.374;11.586;2022-10-19T01:45:18;8.90;99.90
47252;DHT22;32991;51.374;11.586;2022-10-19T01:47:53;8.80;99.90
47252;DHT22;32991;51.374;11.586;2022-10-19T01:50:26;8.80;99.90
47252;DHT22;32991;51.374;11.586;2022-10-19T01:52:54;8.70;99.90
47252;DHT22;32991;51.374;11.586;2022-10-19T01:55:21;8.70;99.90
47252;DHT22;32991;51.374;11.586;2022-10-19T01:57:52;8.60;99.90
47252;DHT22;32991;51.374;11.586;2022-10-19T02:00:20;8.50;99.90
47252;DHT22;32991;51.374;11.586;2022-10-19T02:02:48;8.50;99.90
47252;DHT22;32991;51.374;11.586;2022-10-19T02:05:16;8.40;99.90
47252;DHT22;32991;51.374;11.586;2022-10-19T02:07:44;8.40;99.90
47252;DHT22;32991;51.374;11.586;2022-10-19T02:10:11;8.40;99.90
47252;DHT22;32991;51.374;11.586;2022-10-19T02:12:43;8.30;99.90
47252;DHT22;32991;51.374;11.586;2022-10-19T02:15:12;8.40;99.90
47252;DHT22;32991;51.374;11.586;2022-10-19T02:17:45;8.30;99.90
47252;DHT22;32991;51.374;11.586;2022-10-19T02:20:13;8.40;99.90
47252;DHT22;32991;51.374;11.586;2022-10-19T02:22:40;8.30;99.90
47252;DHT22;32991;51.374;11.586;2022-10-19T02:25:07;8.40;99.90
47252;DHT22;32991;51.374;11.586;2022-10-19T02:27:34;8.40;99.90
47252;DHT22;32991;51.374;11.586;2022-10-19T02:30:02;8.30;99.90
47252;DHT22;32991;51.374;11.586;2022-10-19T02:32:29;8.40;99.90
47252;DHT22;32991;51.374;11.586;2022-10-19T02:34:56;8.40;99.90
47252;DHT22;32991;51.374;11.586;2022-10-19T02:37:22;8.40;99.90
47252;DHT22;32991;51.374;11.586;2022-10-19T02:39:51;8.40;99.90
47252;DHT22;32991;51.374;11.586;2022-10-19T02:42:26;8.50;99.90
47252;DHT22;32991;51.374;11.586;2022-10-19T02:47:32;8.50;99.90
47252;DHT22;32991;51.374;11.586;2022-10-19T02:50:03;8.60;99.90
47252;DHT22;32991;51.374;11.586;2022-10-19T02:52:31;8.60;99.90
47252;DHT22;32991;51.374;11.586;2022-10-19T02:54:58;8.60;99.90
47252;DHT22;32991;51.374;11.586;2022-10-19T02:57:25;8.60;99.90
47252;DHT22;32991;51.374;11.586;2022-10-19T02:59:51;8.60;99.90
47252;DHT22;32991;51.374;11.586;2022-10-19T03:02:19;8.70;99.90
47252;DHT22;32991;51.374;11.586;2022-10-19T03:04:45;8.70;99.90
47252;DHT22;32991;51.374;11.586;2022-10-19T03:07:18;8.70;99.90
47252;DHT22;32991;51.374;11.586;2022-10-19T03:09:45;8.80;99.90
47252;DHT22;32991;51.374;11.586;2022-10-19T03:12:12;8.80;99.90
47252;DHT22;32991;51.374;11.586;2022-10-19T03:14:39;8.80;99.90
47252;DHT22;32991;51.374;11.586;2022-10-19T03:17:06;8.80;99.90
47252;DHT22;32991;51.374;11.586;2022-10-19T03:19:33;8.80;99.90
47252;DHT22;32991;51.374;11.586;2022-10-19T03:22:00;8.80;99.90
47252;DHT22;32991;51.374;11.586;2022-10-19T03:24:28;8.80;99.90
47252;DHT22;32991;51.374;11.586;2022-10-19T03:26:55;8.80;99.90
47252;DHT22;32991;51.374;11.586;2022-10-19T03:29:21;8.80;99.90
47252;DHT22;32991;51.374;11.586;2022-10-19T03:31:48;8.80;99.90
47252;DHT22;32991;51.374;11.586;2022-10-19T03:34:15;8.80;99.90
47252;DHT22;32991;51.374;11.586;2022-10-19T03:36:42;8.80;99.90
47252;DHT22;32991;51.374;11.586;2022-10-19T03:39:12;8.80;99.90
47252;DHT22;32991;51.374;11.586;2022-10-19T03:41:40;8.80;99.90
47252;DHT22;32991;51.374;11.586;2022-10-19T03:44:08;8.80;99.90
47252;DHT22;32991;51.374;11.586;2022-10-19T03:46:35;8.90;99.90
47252;DHT22;32991;51.374;11.586;2022-10-19T03:49:02;8.90;99.90
47252;DHT22;32991;51.374;11.586;2022-10-19T03:51:29;8.90;99.90
47252;DHT22;32991;51.374;11.586;2022-10-19T03:53:57;8.90;99.90
47252;DHT22;32991;51.374;11.586;2022-10-19T03:56:25;8.90;99.90
47252;DHT22;32991;51.374;11.586;2022-10-19T03:58:52;8.90;99.90
47252;DHT22;32991;51.374;11.586;2022-10-19T04:01:24;8.90;99.90
47252;DHT22;32991;51.374;11.586;2022-10-19T04:03:54;8.80;99.90
47252;DHT22;32991;51.374;11.586;2022-10-19T04:06:23;8.80;99.90
47252;DHT22;32991;51.374;11.586;2022-10-19T04:08:50;8.70;99.90
47252;DHT22;32991;51.374;11.586;2022-10-19T04:11:17;8.70;99.90
47252;DHT22;32991;51.374;11.586;2022-10-19T04:13:46;8.60;99.90
47252;DHT22;32991;51.374;11.586;2022-10-19T04:16:13;8.60;99.90
47252;DHT22;32991;51.374;11.586;2022-10-19T04:18:40;8.60;99.90
47252;DHT22;32991;51.374;11.586;2022-10-19T04:21:16;8.50;99.90
47252;DHT22;32991;51.374;11.586;2022-10-19T04:23:45;8.50;99.90
47252;DHT22;32991;51.374;11.586;2022-10-19T04:26:11;8.40;99.90
47252;DHT22;32991;51.374;11.586;2022-10-19T04:28:38;8.40;99.90
47252;DHT22;32991;51.374;11.586;2022-10-19T04:31:06;8.30;99.90
47252;DHT22;32991;51.374;11.586;2022-10-19T04:33:33;8.30;99.90
47252;DHT22;32991;51.374;11.586;2022-10-19T04:36:00;8.30;99.90
47252;DHT22;32991;51.374;11.586;2022-10-19T04:38:28;8.30;99.90
47252;DHT22;32991;51.374;11.586;2022-10-19T04:40:54;8.30;99.90
47252;DHT22;32991;51.374;11.586;2022-10-19T04:43:21;8.30;99.90
47252;DHT22;32991;51.374;11.586;2022-10-19T04:45:48;8.20;99.90
47252;DHT22;32991;51.374;11.586;2022-10-19T04:48:15;8.20;99.90
47252;DHT22;32991;51.374;11.586;2022-10-19T04:50:41;8.10;99.90
47252;DHT22;32991;51.374;11.586;2022-10-19T04:53:18;8.10;99.90
47252;DHT22;32991;51.374;11.586;2022-10-19T04:55:45;8.00;99.90
47252;DHT22;32991;51.374;11.586;2022-10-19T04:58:12;8.00;99.90
47252;DHT22;32991;51.374;11.586;2022-10-19T05:00:38;8.00;99.90
47252;DHT22;32991;51.374;11.586;2022-10-19T05:03:05;7.90;99.90
47252;DHT22;32991;51.374;11.586;2022-10-19T05:05:32;7.90;99.90
47252;DHT22;32991;51.374;11.586;2022-10-19T05:07:59;7.90;99.90
47252;DHT22;32991;51.374;11.586;2022-10-19T05:10:26;7.80;99.90
47252;DHT22;32991;51.374;11.586;2022-10-19T05:12:53;7.90;99.90
47252;DHT22;32991;51.374;11.586;2022-10-19T05:15:19;7.80;99.90
47252;DHT22;32991;51.374;11.586;2022-10-19T05:17:46;7.80;99.90
47252;DHT22;32991;51.374;11.586;2022-10-19T05:20:13;7.80;99.90
47252;DHT22;32991;51.374;11.586;2022-10-19T05:22:39;7.80;99.90
47252;DHT22;32991;51.374;11.586;2022-10-19T05:25:06;7.80;99.90
47252;DHT22;32991;51.374;11.586;2022-10-19T05:27:33;7.80;99.90
47252;DHT22;32991;51.374;11.586;2022-10-19T05:30:00;7.80;99.90
47252;DHT22;32991;51.374;11.586;2022-10-19T05:32:27;7.80;99.90
47252;DHT22;32991;51.374;11.586;2022-10-19T05:34:54;7.80;99.90
47252;DHT22;32991;51.374;11.586;2022-10-19T05:37:21;7.70;99.90
47252;DHT22;32991;51.374;11.586;2022-10-19T05:39:47;7.70;99.90
47252;DHT22;32991;51.374;11.586;2022-10-19T05:42:14;7.70;99.90
47252;DHT22;32991;51.374;11.586;2022-10-19T05:44:41;7.70;99.90
47252;DHT22;32991;51.374;11.586;2022-10-19T05:47:07;7.70;99.90
47252;DHT22;32991;51.374;11.586;2022-10-19T05:49:34;7.70;99.90
47252;DHT22;32991;51.374;11.586;2022-10-19T05:52:01;7.70;99.90
47252;DHT22;32991;51.374;11.586;2022-10-19T05:54:28;7.70;99.90
47252;DHT22;32991;51.374;11.586;2022-10-19T05:56:54;7.70;99.90
47252;DHT22;32991;51.374;11.586;2022-10-19T05:59:22;7.60;99.90
47252;DHT22;32991;51.374;11.586;2022-10-19T06:01:49;7.60;99.90
47252;DHT22;32991;51.374;11.586;2022-10-19T06:04:15;7.60;99.90
47252;DHT22;32991;51.374;11.586;2022-10-19T06:06:47;7.60;99.90
47252;DHT22;32991;51.374;11.586;2022-10-19T06:09:14;7.60;99.90
47252;DHT22;32991;51.374;11.586;2022-10-19T06:11:41;7.60;99.90
47252;DHT22;32991;51.374;11.586;2022-10-19T06:14:12;7.60;99.90
47252;DHT22;32991;51.374;11.586;2022-10-19T06:16:40;7.60;99.90
47252;DHT22;32991;51.374;11.586;2022-10-19T06:19:07;7.70;99.90
47252;DHT22;32991;51.374;11.586;2022-10-19T06:21:34;7.70;99.90
47252;DHT22;32991;51.374;11.586;2022-10-19T06:24:02;7.70;99.90
47252;DHT22;32991;51.374;11.586;2022-10-19T06:26:30;7.90;99.90
47252;DHT22;32991;51.374;11.586;2022-10-19T06:28:58;8.00;99.90
47252;DHT22;32991;51.374;11.586;2022-10-19T06:31:35;8.50;99.90
47252;DHT22;32991;51.374;11.586;2022-10-19T06:34:02;9.20;99.90
47252;DHT22;32991;51.374;11.586;2022-10-19T06:36:29;9.70;99.90
47252;DHT22;32991;51.374;11.586;2022-10-19T06:38:56;10.00;99.90
47252;DHT22;32991;51.374;11.586;2022-10-19T06:41:25;10.10;99.90
47252;DHT22;32991;51.374;11.586;2022-10-19T06:43:52;10.50;99.90
47252;DHT22;32991;51.374;11.586;2022-10-19T06:46:20;11.10;99.90
47252;DHT22;32991;51.374;11.586;2022-10-19T06:48:55;11.80;99.90
47252;DHT22;32991;51.374;11.586;2022-10-19T06:51:23;12.60;99.90
47252;DHT22;32991;51.374;11.586;2022-10-19T06:53:51;12.90;99.90
47252;DHT22;32991;51.374;11.586;2022-10-19T06:56:22;12.70;99.90
47252;DHT22;32991;51.374;11.586;2022-10-19T06:58:50;12.40;99.90
47252;DHT22;32991;51.374;11.586;2022-10-19T07:01:17;12.30;99.90
47252;DHT22;32991;51.374;11.586;2022-10-19T07:03:44;12.20;99.90
47252;DHT22;32991;51.374;11.586;2022-10-19T07:06:11;12.30;99.90
47252;DHT22;32991;51.374;11.586;2022-10-19T07:08:39;13.20;99.90
47252;DHT22;32991;51.374;11.586;2022-10-19T07:11:07;13.50;99.90
47252;DHT22;32991;51.374;11.586;2022-10-19T07:13:34;13.30;99.90
47252;DHT22;32991;51.374;11.586;2022-10-19T07:16:02;13.20;99.90
47252;DHT22;32991;51.374;11.586;2022-10-19T07:18:31;13.30;99.90
47252;DHT22;32991;51.374;11.586;2022-10-19T07:21:00;13.20;99.90
47252;DHT22;32991;51.374;11.586;2022-10-19T07:23:28;13.00;99.90
47252;DHT22;32991;51.374;11.586;2022-10-19T07:25:55;12.60;99.90
47252;DHT22;32991;51.374;11.586;2022-10-19T07:28:27;12.20;99.90
47252;DHT22;32991;51.374;11.586;2022-10-19T07:30:54;11.90;99.90
47252;DHT22;32991;51.374;11.586;2022-10-19T07:33:21;11.60;99.90
47252;DHT22;32991;51.374;11.586;2022-10-19T07:35:48;11.40;99.90
47252;DHT22;32991;51.374;11.586;2022-10-19T07:38:15;11.20;99.90
47252;DHT22;32991;51.374;11.586;2022-10-19T07:40:42;11.00;99.90
47252;DHT22;32991;51.374;11.586;2022-10-19T07:43:12;10.80;99.90
47252;DHT22;32991;51.374;11.586;2022-10-19T07:45:39;10.70;99.90
47252;DHT22;32991;51.374;11.586;2022-10-19T07:48:06;10.70;99.90
47252;DHT22;32991;51.374;11.586;2022-10-19T07:50:32;10.60;99.90
47252;DHT22;32991;51.374;11.586;2022-10-19T07:52:59;10.60;99.90
47252;DHT22;32991;51.374;11.586;2022-10-19T07:55:28;10.50;99.90
47252;DHT22;32991;51.374;11.586;2022-10-19T07:57:55;10.50;99.90
47252;DHT22;32991;51.374;11.586;2022-10-19T08:00:26;10.50;99.90
47252;DHT22;32991;51.374;11.586;2022-10-19T08:02:54;10.50;99.90
47252;DHT22;32991;51.374;11.586;2022-10-19T08:05:40;10.60;99.90
47252;DHT22;32991;51.374;11.586;2022-10-19T08:08:07;10.60;99.90
47252;DHT22;32991;51.374;11.586;2022-10-19T08:10:34;10.60;99.90
47252;DHT22;32991;51.374;11.586;2022-10-19T08:13:01;10.60;99.90
47252;DHT22;32991;51.374;11.586;2022-10-19T08:15:28;10.60;99.90
47252;DHT22;32991;51.374;11.586;2022-10-19T08:17:55;10.60;99.90
47252;DHT22;32991;51.374;11.586;2022-10-19T08:20:22;10.60;99.90
47252;DHT22;32991;51.374;11.586;2022-10-19T08:22:49;10.70;99.90
47252;DHT22;32991;51.374;11.586;2022-10-19T08:25:20;10.70;99.90
47252;DHT22;32991;51.374;11.586;2022-10-19T08:27:47;10.70;99.90
47252;DHT22;32991;51.374;11.586;2022-10-19T08:30:14;10.80;99.90
47252;DHT22;32991;51.374;11.586;2022-10-19T08:32:40;10.90;99.90
47252;DHT22;32991;51.374;11.586;2022-10-19T08:35:07;10.90;99.90
47252;DHT22;32991;51.374;11.586;2022-10-19T08:37:36;11.00;99.90
47252;DHT22;32991;51.374;11.586;2022-10-19T08:40:22;11.20;99.90
47252;DHT22;32991;51.374;11.586;2022-10-19T08:42:51;11.30;99.90
47252;DHT22;32991;51.374;11.586;2022-10-19T08:50:18;11.70;99.90
47252;DHT22;32991;51.374;11.586;2022-10-19T08:52:47;11.80;99.90
47252;DHT22;32991;51.374;11.586;2022-10-19T08:55:16;12.00;99.90
47252;DHT22;32991;51.374;11.586;2022-10-19T08:57:51;12.30;99.90
47252;DHT22;32991;51.374;11.586;2022-10-19T09:03:02;12.60;99.90
47252;DHT22;32991;51.374;11.586;2022-10-19T09:05:42;12.70;99.90
47252;DHT22;32991;51.374;11.586;2022-10-19T09:08:10;12.60;99.90
47252;DHT22;32991;51.374;11.586;2022-10-19T09:10:44;12.60;99.90
47252;DHT22;32991;51.374;11.586;2022-10-19T09:15:41;12.50;99.90
47252;DHT22;32991;51.374;11.586;2022-10-19T09:18:09;12.50;99.90
47252;DHT22;32991;51.374;11.586;2022-10-19T09:20:37;12.60;99.90
47252;DHT22;32991;51.374;11.586;2022-10-19T09:25:36;12.60;99.90
47252;DHT22;32991;51.374;11.586;2022-10-19T09:30:56;12.80;99.90
47252;DHT22;32991;51.374;11.586;2022-10-19T09:33:29;12.90;99.90
47252;DHT22;32991;51.374;11.586;2022-10-19T09:35:57;13.10;99.90
47252;DHT22;32991;51.374;11.586;2022-10-19T09:38:26;13.00;99.90
47252;DHT22;32991;51.374;11.586;2022-10-19T09:40:55;13.10;99.90
47252;DHT22;32991;51.374;11.586;2022-10-19T09:43:22;13.10;99.90
47252;DHT22;32991;51.374;11.586;2022-10-19T09:45:51;13.10;99.90
47252;DHT22;32991;51.374;11.586;2022-10-19T09:50:48;13.30;99.90
47252;DHT22;32991;51.374;11.586;2022-10-19T09:53:17;13.40;99.90
47252;DHT22;32991;51.374;11.586;2022-10-19T09:56:20;13.40;99.90
47252;DHT22;32991;51.374;11.586;2022-10-19T09:58:38;13.50;99.90
47252;DHT22;32991;51.374;11.586;2022-10-19T10:01:27;13.60;99.90
47252;DHT22;32991;51.374;11.586;2022-10-19T10:04:09;13.80;99.90
47252;DHT22;32991;51.374;11.586;2022-10-19T10:06:39;13.70;99.90
47252;DHT22;32991;51.374;11.586;2022-10-19T10:09:06;13.70;99.90
47252;DHT22;32991;51.374;11.586;2022-10-19T10:11:34;13.90;99.90
47252;DHT22;32991;51.374;11.586;2022-10-19T10:16:39;14.10;99.90
47252;DHT22;32991;51.374;11.586;2022-10-19T10:19:07;14.20;99.90
47252;DHT22;32991;51.374;11.586;2022-10-19T10:21:50;14.20;99.90
47252;DHT22;32991;51.374;11.586;2022-10-19T10:24:19;14.30;99.90
47252;DHT22;32991;51.374;11.586;2022-10-19T10:26:56;14.40;99.90
47252;DHT22;32991;51.374;11.586;2022-10-19T10:29:25;14.50;99.90
47252;DHT22;32991;51.374;11.586;2022-10-19T10:34:30;14.50;99.90
47252;DHT22;32991;51.374;11.586;2022-10-19T10:37:22;14.50;99.90
47252;DHT22;32991;51.374;11.586;2022-10-19T10:39:50;14.50;99.90
47252;DHT22;32991;51.374;11.586;2022-10-19T10:42:19;14.50;99.90
47252;DHT22;32991;51.374;11.586;2022-10-19T10:44:48;14.50;99.90
47252;DHT22;32991;51.374;11.586;2022-10-19T10:47:17;14.60;99.90
47252;DHT22;32991;51.374;11.586;2022-10-19T10:49:56;14.70;99.90
47252;DHT22;32991;51.374;11.586;2022-10-19T10:52:23;14.70;99.90
47252;DHT22;32991;51.374;11.586;2022-10-19T10:57:24;14.70;99.90
47252;DHT22;32991;51.374;11.586;2022-10-19T11:02:30;14.70;99.90
47252;DHT22;32991;51.374;11.586;2022-10-19T11:05:43;14.80;99.90
47252;DHT22;32991;51.374;11.586;2022-10-19T11:08:37;14.80;99.90
47252;DHT22;32991;51.374;11.586;2022-10-19T11:13:13;15.00;99.90
47252;DHT22;32991;51.374;11.586;2022-10-19T11:15:51;14.90;99.90
47252;DHT22;32991;51.374;11.586;2022-10-19T11:18:24;14.90;99.90
47252;DHT22;32991;51.374;11.586;2022-10-19T11:21:03;14.90;99.90
47252;DHT22;32991;51.374;11.586;2022-10-19T11:23:36;14.70;99.90
47252;DHT22;32991;51.374;11.586;2022-10-19T11:31:14;14.40;99.90
47252;DHT22;32991;51.374;11.586;2022-10-19T11:33:53;14.30;99.90
47252;DHT22;32991;51.374;11.586;2022-10-19T11:36:35;14.30;99.90
47252;DHT22;32991;51.374;11.586;2022-10-19T11:44:47;14.00;99.90
47252;DHT22;32991;51.374;11.586;2022-10-19T11:54:58;14.10;99.90
47252;DHT22;32991;51.374;11.586;2022-10-19T12:12:46;14.30;99.90
47252;DHT22;32991;51.374;11.586;2022-10-19T12:17:42;14.50;99.90
47252;DHT22;32991;51.374;11.586;2022-10-19T12:20:45;14.60;99.90
47252;DHT22;32991;51.374;11.586;2022-10-19T12:23:14;14.70;99.90
47252;DHT22;32991;51.374;11.586;2022-10-19T12:25:42;14.80;99.90
47252;DHT22;32991;51.374;11.586;2022-10-19T12:28:14;14.90;99.90
47252;DHT22;32991;51.374;11.586;2022-10-19T12:30:44;15.00;99.90
47252;DHT22;32991;51.374;11.586;2022-10-19T12:41:31;15.00;99.90
47252;DHT22;32991;51.374;11.586;2022-10-19T12:46:40;14.80;99.90
47252;DHT22;32991;51.374;11.586;2022-10-19T12:51:54;14.60;99.90
47252;DHT22;32991;51.374;11.586;2022-10-19T12:54:26;14.40;99.90
47252;DHT22;32991;51.374;11.586;2022-10-19T12:56:54;14.20;99.90
47252;DHT22;32991;51.374;11.586;2022-10-19T12:59:22;14.00;99.90
47252;DHT22;32991;51.374;11.586;2022-10-19T13:01:50;13.90;99.90
47252;DHT22;32991;51.374;11.586;2022-10-19T13:04:18;13.80;99.90
47252;DHT22;32991;51.374;11.586;2022-10-19T13:06:50;13.70;99.90
47252;DHT22;32991;51.374;11.586;2022-10-19T13:22:42;13.80;99.90
47252;DHT22;32991;51.374;11.586;2022-10-19T13:25:19;13.80;99.90
47252;DHT22;32991;51.374;11.586;2022-10-19T13:27:47;13.80;99.90
47252;DHT22;32991;51.374;11.586;2022-10-19T13:32:59;13.90;99.90
47252;DHT22;32991;51.374;11.586;2022-10-19T13:43:31;13.50;99.90
47252;DHT22;32991;51.374;11.586;2022-10-19T13:46:15;13.30;99.90
47252;DHT22;32991;51.374;11.586;2022-10-19T13:51:23;13.10;99.90
47252;DHT22;32991;51.374;11.586;2022-10-19T13:54:09;13.10;99.90
47252;DHT22;32991;51.374;11.586;2022-10-19T13:56:49;13.00;99.90
47252;DHT22;32991;51.374;11.586;2022-10-19T13:59:23;13.00;99.90
47252;DHT22;32991;51.374;11.586;2022-10-19T14:04:27;13.00;99.90
47252;DHT22;32991;51.374;11.586;2022-10-19T14:07:00;13.00;99.90
47252;DHT22;32991;51.374;11.586;2022-10-19T14:12:22;12.90;99.90
47252;DHT22;32991;51.374;11.586;2022-10-19T14:14:48;12.90;99.90
47252;DHT22;32991;51.374;11.586;2022-10-19T14:17:23;12.80;99.90
47252;DHT22;32991;51.374;11.586;2022-10-19T14:19:51;12.70;99.90
47252;DHT22;32991;51.374;11.586;2022-10-19T14:22:30;12.60;99.90
47252;DHT22;32991;51.374;11.586;2022-10-19T14:25:00;12.60;99.90
47252;DHT22;32991;51.374;11.586;2022-10-19T14:27:27;12.60;99.90
47252;DHT22;32991;51.374;11.586;2022-10-19T14:29:55;12.60;99.90
47252;DHT22;32991;51.374;11.586;2022-10-19T14:32:26;12.50;99.90
47252;DHT22;32991;51.374;11.586;2022-10-19T14:34:55;12.50;99.90
47252;DHT22;32991;51.374;11.586;2022-10-19T14:37:24;12.50;99.90
47252;DHT22;32991;51.374;11.586;2022-10-19T14:39:59;12.40;99.90
47252;DHT22;32991;51.374;11.586;2022-10-19T14:42:40;12.30;99.90
47252;DHT22;32991;51.374;11.586;2022-10-19T14:45:09;12.30;99.90
47252;DHT22;32991;51.374;11.586;2022-10-19T14:47:43;12.20;99.90
47252;DHT22;32991;51.374;11.586;2022-10-19T14:50:16;12.10;99.90
47252;DHT22;32991;51.374;11.586;2022-10-19T14:52:43;12.00;99.90
47252;DHT22;32991;51.374;11.586;2022-10-19T14:55:12;12.00;99.90
47252;DHT22;32991;51.374;11.586;2022-10-19T14:57:43;11.90;99.90
47252;DHT22;32991;51.374;11.586;2022-10-19T15:00:19;11.90;99.90
47252;DHT22;32991;51.374;11.586;2022-10-19T15:02:52;11.80;99.90
47252;DHT22;32991;51.374;11.586;2022-10-19T15:05:20;11.90;99.90
47252;DHT22;32991;51.374;11.586;2022-10-19T15:07:47;11.90;99.90
47252;DHT22;32991;51.374;11.586;2022-10-19T15:10:22;11.80;99.90
47252;DHT22;32991;51.374;11.586;2022-10-19T15:12:49;11.70;99.90
47252;DHT22;32991;51.374;11.586;2022-10-19T15:15:27;11.70;99.90
47252;DHT22;32991;51.374;11.586;2022-10-19T15:20:31;11.60;99.90
47252;DHT22;32991;51.374;11.586;2022-10-19T15:23:32;11.60;99.90
47252;DHT22;32991;51.374;11.586;2022-10-19T15:26:10;11.60;99.90
47252;DHT22;32991;51.374;11.586;2022-10-19T15:28:43;11.50;99.90
47252;DHT22;32991;51.374;11.586;2022-10-19T15:31:20;11.40;99.90
47252;DHT22;32991;51.374;11.586;2022-10-19T15:33:56;11.40;99.90
47252;DHT22;32991;51.374;11.586;2022-10-19T15:36:23;11.30;99.90
47252;DHT22;32991;51.374;11.586;2022-10-19T15:41:43;11.30;99.90
47252;DHT22;32991;51.374;11.586;2022-10-19T15:44:53;11.30;99.90
47252;DHT22;32991;51.374;11.586;2022-10-19T15:52:16;11.20;99.90
47252;DHT22;32991;51.374;11.586;2022-10-19T15:54:51;11.20;99.90
47252;DHT22;32991;51.374;11.586;2022-10-19T15:57:28;11.20;99.90
47252;DHT22;32991;51.374;11.586;2022-10-19T15:59:57;11.20;99.90
47252;DHT22;32991;51.374;11.586;2022-10-19T16:02:24;11.10;99.90
47252;DHT22;32991;51.374;11.586;2022-10-19T16:04:51;11.10;99.90
47252;DHT22;32991;51.374;11.586;2022-10-19T16:07:26;11.00;99.90
47252;DHT22;32991;51.374;11.586;2022-10-19T16:09:54;11.00;99.90
47252;DHT22;32991;51.374;11.586;2022-10-19T16:12:21;10.90;99.90
47252;DHT22;32991;51.374;11.586;2022-10-19T16:14:48;10.90;99.90
47252;DHT22;32991;51.374;11.586;2022-10-19T16:17:15;10.90;99.90
47252;DHT22;32991;51.374;11.586;2022-10-19T16:19:42;10.90;99.90
47252;DHT22;32991;51.374;11.586;2022-10-19T16:22:09;10.80;99.90
47252;DHT22;32991;51.374;11.586;2022-10-19T16:24:36;10.90;99.90
47252;DHT22;32991;51.374;11.586;2022-10-19T16:27:03;10.80;99.90
47252;DHT22;32991;51.374;11.586;2022-10-19T16:29:30;10.80;99.90
47252;DHT22;32991;51.374;11.586;2022-10-19T16:31:57;10.80;99.90
47252;DHT22;32991;51.374;11.586;2022-10-19T16:34:24;10.80;99.90
47252;DHT22;32991;51.374;11.586;2022-10-19T16:36:53;10.80;99.90
47252;DHT22;32991;51.374;11.586;2022-10-19T16:39:20;10.70;99.90
47252;DHT22;32991;51.374;11.586;2022-10-19T16:41:47;10.80;99.90
47252;DHT22;32991;51.374;11.586;2022-10-19T16:44:14;10.70;99.90
47252;DHT22;32991;51.374;11.586;2022-10-19T16:46:41;10.70;99.90
47252;DHT22;32991;51.374;11.586;2022-10-19T16:49:08;10.70;99.90
47252;DHT22;32991;51.374;11.586;2022-10-19T16:51:36;10.80;99.90
47252;DHT22;32991;51.374;11.586;2022-10-19T16:54:07;10.80;99.90
47252;DHT22;32991;51.374;11.586;2022-10-19T16:56:34;10.70;99.90
47252;DHT22;32991;51.374;11.586;2022-10-19T16:59:03;10.70;99.90
47252;DHT22;32991;51.374;11.586;2022-10-19T17:01:31;10.60;99.90
47252;DHT22;32991;51.374;11.586;2022-10-19T17:03:58;10.60;99.90
47252;DHT22;32991;51.374;11.586;2022-10-19T17:06:25;10.60;99.90
47252;DHT22;32991;51.374;11.586;2022-10-19T17:08:54;10.60;99.90
47252;DHT22;32991;51.374;11.586;2022-10-19T17:11:41;10.60;99.90
47252;DHT22;32991;51.374;11.586;2022-10-19T17:14:09;10.60;99.90
47252;DHT22;32991;51.374;11.586;2022-10-19T17:16:37;10.60;99.90
47252;DHT22;32991;51.374;11.586;2022-10-19T17:19:05;10.50;99.90
47252;DHT22;32991;51.374;11.586;2022-10-19T17:21:33;10.50;99.90
47252;DHT22;32991;51.374;11.586;2022-10-19T17:24:01;10.50;99.90
47252;DHT22;32991;51.374;11.586;2022-10-19T17:26:29;10.50;99.90
47252;DHT22;32991;51.374;11.586;2022-10-19T17:28:56;10.50;99.90
47252;DHT22;32991;51.374;11.586;2022-10-19T17:31:23;10.40;99.90
47252;DHT22;32991;51.374;11.586;2022-10-19T17:33:50;10.40;99.90
47252;DHT22;32991;51.374;11.586;2022-10-19T17:36:18;10.40;99.90
47252;DHT22;32991;51.374;11.586;2022-10-19T17:38:46;10.40;99.90
47252;DHT22;32991;51.374;11.586;2022-10-19T17:41:14;10.30;99.90
47252;DHT22;32991;51.374;11.586;2022-10-19T17:43:42;10.20;99.90
47252;DHT22;32991;51.374;11.586;2022-10-19T17:46:09;10.20;99.90
47252;DHT22;32991;51.374;11.586;2022-10-19T17:48:37;10.20;99.90
47252;DHT22;32991;51.374;11.586;2022-10-19T17:51:05;10.20;99.90
47252;DHT22;32991;51.374;11.586;2022-10-19T17:53:32;10.20;99.90
47252;DHT22;32991;51.374;11.586;2022-10-19T17:56:00;10.20;99.90